createdAt,value
2022-08-11T00:00:22.650Z,21.30
2022-08-11T00:01:22.612Z,21.27
2022-08-11T00:02:22.724Z,21.26
2022-08-11T00:03:22.648Z,21.21
2022-08-11T00:04:23.581Z,21.19
2022-08-11T00:05:22.561Z,21.18
2022-08-11T00:06:22.552Z,21.15
2022-08-11T00:07:22.552Z,21.15
2022-08-11T00:08:22.523Z,21.13
2022-08-11T00:09:22.518Z,21.11
2022-08-11T00:10:22.502Z,21.09
2022-08-11T00:11:22.523Z,21.06
2022-08-11T00:12:22.474Z,21.06
2022-08-11T00:13:22.484Z,21.05
2022-08-11T00:14:22.456Z,21.00
2022-08-11T00:15:22.447Z,20.98
2022-08-11T00:16:22.475Z,20.96
2022-08-11T00:17:22.481Z,20.94
2022-08-11T00:18:22.415Z,20.90
2022-08-11T00:20:14.592Z,20.87
2022-08-11T00:20:23.406Z,20.83
2022-08-11T00:21:56.920Z,20.81
2022-08-11T00:22:23.376Z,20.78
2022-08-11T00:23:22.456Z,20.76
2022-08-11T00:24:22.355Z,20.78
2022-08-11T00:25:22.335Z,20.76
2022-08-11T00:26:22.327Z,20.78
2022-08-11T00:27:22.326Z,20.79
2022-08-11T00:28:22.338Z,20.78
2022-08-11T00:29:22.348Z,20.79
2022-08-11T00:30:22.308Z,20.76
2022-08-11T00:31:22.288Z,20.75
2022-08-11T00:32:22.279Z,20.75
2022-08-11T00:33:22.255Z,20.72
2022-08-11T00:34:23.334Z,20.71
2022-08-11T00:35:51.046Z,20.71
2022-08-11T00:36:25.569Z,20.71
2022-08-11T00:37:22.229Z,20.68
2022-08-11T00:38:22.209Z,20.66
2022-08-11T00:39:27.274Z,20.61
2022-08-11T00:40:23.204Z,20.60
2022-08-11T00:41:22.161Z,20.58
2022-08-11T00:42:22.161Z,20.56
2022-08-11T00:43:22.145Z,20.57
2022-08-11T00:44:22.142Z,20.54
2022-08-11T00:45:22.133Z,20.54
2022-08-11T00:46:22.113Z,20.54
2022-08-11T00:47:22.096Z,20.51
2022-08-11T00:48:22.094Z,20.53
2022-08-11T00:49:22.073Z,20.51
2022-08-11T00:50:22.091Z,20.50
2022-08-11T00:51:22.085Z,20.50
2022-08-11T00:52:22.068Z,20.48
2022-08-11T00:53:22.053Z,20.44
2022-08-11T00:54:22.056Z,20.44
2022-08-11T00:55:22.013Z,20.42
2022-08-11T00:56:22.028Z,20.44
2022-08-11T00:57:37.257Z,20.42
2022-08-11T00:58:22.983Z,20.41
2022-08-11T00:59:34.050Z,20.40
2022-08-11T01:00:22.967Z,20.37
2022-08-11T01:01:21.999Z,20.37
2022-08-11T01:02:21.938Z,20.34
2022-08-11T01:03:22.936Z,20.34
2022-08-11T01:04:21.927Z,20.34
2022-08-11T01:05:21.927Z,20.31
2022-08-11T01:06:21.907Z,20.27
2022-08-11T01:08:00.991Z,20.30
2022-08-11T01:08:22.881Z,20.31
2022-08-11T01:09:22.207Z,20.30
2022-08-11T01:10:21.855Z,20.30
2022-08-11T01:11:21.885Z,20.30
2022-08-11T01:12:21.870Z,20.27
2022-08-11T01:13:21.855Z,20.27
2022-08-11T01:14:26.116Z,20.26
2022-08-11T01:15:22.819Z,20.23
2022-08-11T01:16:21.811Z,20.23
2022-08-11T01:17:27.999Z,20.22
2022-08-11T01:18:21.770Z,20.19
2022-08-11T01:19:22.761Z,20.17
2022-08-11T01:20:46.990Z,20.16
2022-08-11T01:21:22.763Z,20.15
2022-08-11T01:22:21.722Z,20.15
2022-08-11T01:23:21.717Z,20.13
2022-08-11T01:24:21.710Z,20.10
2022-08-11T01:25:21.700Z,20.07
2022-08-11T01:26:21.681Z,20.07
2022-08-11T01:27:21.675Z,20.07
2022-08-11T01:28:21.663Z,20.04
2022-08-11T01:29:21.653Z,20.01
2022-08-11T01:30:21.662Z,19.98
2022-08-11T01:31:23.687Z,19.95
2022-08-11T01:32:21.614Z,19.92
2022-08-11T01:33:21.635Z,19.90
2022-08-11T01:34:21.605Z,19.86
2022-08-11T01:35:21.596Z,19.85
2022-08-11T01:36:21.565Z,19.83
2022-08-11T01:37:21.594Z,19.82
2022-08-11T01:38:21.576Z,19.82
2022-08-11T01:39:21.613Z,19.79
2022-08-11T01:40:21.555Z,19.76
2022-08-11T01:41:21.518Z,19.75
2022-08-11T01:42:21.508Z,19.72
2022-08-11T01:43:21.497Z,19.71
2022-08-11T01:44:21.481Z,19.72
2022-08-11T01:45:21.506Z,19.70
2022-08-11T01:46:21.483Z,19.70
2022-08-11T01:47:21.459Z,19.70
2022-08-11T01:48:21.439Z,19.68
2022-08-11T01:50:06.590Z,19.65
2022-08-11T01:50:22.422Z,19.62
2022-08-11T01:51:21.481Z,19.61
2022-08-11T01:52:33.302Z,19.61
2022-08-11T01:53:22.390Z,19.60
2022-08-11T01:54:21.378Z,19.62
2022-08-11T01:55:21.370Z,19.60
2022-08-11T01:56:21.382Z,19.58
2022-08-11T01:57:21.354Z,19.57
2022-08-11T01:58:21.332Z,19.55
2022-08-11T01:59:22.330Z,19.52
2022-08-11T02:00:21.323Z,19.49
2022-08-11T02:01:21.395Z,19.49
2022-08-11T02:02:21.767Z,19.49
2022-08-11T02:03:21.283Z,19.49
2022-08-11T02:04:21.302Z,19.47
2022-08-11T02:05:21.264Z,19.47
2022-08-11T02:06:21.246Z,19.46
2022-08-11T02:07:21.262Z,19.46
2022-08-11T02:08:21.223Z,19.45
2022-08-11T02:09:22.254Z,19.42
2022-08-11T02:10:21.275Z,19.43
2022-08-11T02:11:21.215Z,19.43
2022-08-11T02:12:21.185Z,19.47
2022-08-11T02:13:30.313Z,19.45
2022-08-11T02:14:22.179Z,19.43
2022-08-11T02:15:21.154Z,19.43
2022-08-11T02:16:21.144Z,19.42
2022-08-11T02:17:21.134Z,19.40
2022-08-11T02:18:21.116Z,19.39
2022-08-11T02:19:21.127Z,19.34
2022-08-11T02:20:21.095Z,19.30
2022-08-11T02:21:21.098Z,19.28
2022-08-11T02:22:21.075Z,19.27
2022-08-11T02:23:59.598Z,19.27
2022-08-11T02:24:22.066Z,19.24
2022-08-11T02:25:21.044Z,19.20
2022-08-11T02:26:21.029Z,19.20
2022-08-11T02:27:21.031Z,19.20
2022-08-11T02:28:21.009Z,19.20
2022-08-11T02:29:21.023Z,19.20
2022-08-11T02:30:20.999Z,19.16
2022-08-11T02:32:17.163Z,19.17
2022-08-11T02:32:28.717Z,19.12
2022-08-11T02:33:21.961Z,19.10
2022-08-11T02:34:20.952Z,19.07
2022-08-11T02:35:20.931Z,19.09
2022-08-11T02:36:20.929Z,19.07
2022-08-11T02:37:23.793Z,19.07
2022-08-11T02:38:20.910Z,19.02
2022-08-11T02:39:20.943Z,18.99
2022-08-11T02:40:20.885Z,18.96
2022-08-11T02:41:20.982Z,18.91
2022-08-11T02:42:32.122Z,18.89
2022-08-11T02:43:21.872Z,18.86
2022-08-11T02:44:20.833Z,18.89
2022-08-11T02:45:20.846Z,18.89
2022-08-11T02:46:20.802Z,18.86
2022-08-11T02:47:20.794Z,18.83
2022-08-11T02:48:20.805Z,18.83
2022-08-11T02:49:20.784Z,18.82
2022-08-11T02:50:20.768Z,18.78
2022-08-11T02:51:21.911Z,18.76
2022-08-11T02:52:20.754Z,18.74
2022-08-11T02:53:20.773Z,18.72
2022-08-11T02:54:20.747Z,18.72
2022-08-11T02:55:48.870Z,18.71
2022-08-11T02:56:21.728Z,18.69
2022-08-11T02:57:20.717Z,18.68
2022-08-11T02:58:26.931Z,18.66
2022-08-11T02:59:21.697Z,18.64
2022-08-11T03:00:20.674Z,18.64
2022-08-11T03:01:20.721Z,18.62
2022-08-11T03:02:20.638Z,18.62
2022-08-11T03:03:20.628Z,18.57
2022-08-11T03:04:20.667Z,18.57
2022-08-11T03:05:20.612Z,18.56
2022-08-11T03:06:20.638Z,18.56
2022-08-11T03:07:29.058Z,18.54
2022-08-11T03:08:21.578Z,18.51
2022-08-11T03:09:20.569Z,18.49
2022-08-11T03:10:20.549Z,18.47
2022-08-11T03:11:20.560Z,18.42
2022-08-11T03:12:20.537Z,18.42
2022-08-11T03:13:20.522Z,18.41
2022-08-11T03:14:20.512Z,18.41
2022-08-11T03:15:20.505Z,18.39
2022-08-11T03:16:20.502Z,18.36
2022-08-11T03:17:20.481Z,18.38
2022-08-11T03:18:20.481Z,18.36
2022-08-11T03:19:20.873Z,18.36
2022-08-11T03:20:20.452Z,18.36
2022-08-11T03:21:20.441Z,18.36
2022-08-11T03:22:20.421Z,18.36
2022-08-11T03:23:20.672Z,18.36
2022-08-11T03:24:20.404Z,18.35
2022-08-11T03:25:20.405Z,18.36
2022-08-11T03:26:20.393Z,18.34
2022-08-11T03:27:20.363Z,18.34
2022-08-11T03:28:20.363Z,18.32
2022-08-11T03:29:25.160Z,18.31
2022-08-11T03:30:21.355Z,18.28
2022-08-11T03:31:20.324Z,18.28
2022-08-11T03:32:20.305Z,18.25
2022-08-11T03:33:20.307Z,18.25
2022-08-11T03:34:20.305Z,18.23
2022-08-11T03:35:21.657Z,18.21
2022-08-11T03:36:20.267Z,18.20
2022-08-11T03:37:20.257Z,18.21
2022-08-11T03:38:20.248Z,18.17
2022-08-11T03:39:21.254Z,18.16
2022-08-11T03:40:20.276Z,18.16
2022-08-11T03:42:02.490Z,18.13
2022-08-11T03:42:21.201Z,18.11
2022-08-11T03:43:20.205Z,18.11
2022-08-11T03:44:20.180Z,18.09
2022-08-11T03:45:20.177Z,18.07
2022-08-11T03:46:20.159Z,18.07
2022-08-11T03:47:20.147Z,18.07
2022-08-11T03:48:20.172Z,18.04
2022-08-11T03:49:20.141Z,18.05
2022-08-11T03:50:20.113Z,18.04
2022-08-11T03:51:20.108Z,18.02
2022-08-11T03:52:20.112Z,18.01
2022-08-11T03:53:20.134Z,18.01
2022-08-11T03:54:20.081Z,17.96
2022-08-11T03:55:20.072Z,17.96
2022-08-11T03:56:20.081Z,17.95
2022-08-11T03:57:20.048Z,17.92
2022-08-11T03:58:20.061Z,17.92
2022-08-11T03:59:20.021Z,17.92
2022-08-11T04:00:20.003Z,17.91
2022-08-11T04:01:20.072Z,17.91
2022-08-11T04:02:19.998Z,17.89
2022-08-11T04:03:20.055Z,17.87
2022-08-11T04:04:20.024Z,17.84
2022-08-11T04:05:19.978Z,17.84
2022-08-11T04:06:19.941Z,17.83
2022-08-11T04:07:19.942Z,17.80
2022-08-11T04:08:19.944Z,17.79
2022-08-11T04:09:19.984Z,17.81
2022-08-11T04:10:19.915Z,17.80
2022-08-11T04:11:19.884Z,17.81
2022-08-11T04:12:35.581Z,17.80
2022-08-11T04:13:20.905Z,17.80
2022-08-11T04:14:19.892Z,17.81
2022-08-11T04:15:19.854Z,17.80
2022-08-11T04:16:19.856Z,17.80
2022-08-11T04:17:19.835Z,17.79
2022-08-11T04:18:19.927Z,17.79
2022-08-11T04:19:19.837Z,17.76
2022-08-11T04:20:19.797Z,17.76
2022-08-11T04:21:19.815Z,17.74
2022-08-11T04:22:20.853Z,17.74
2022-08-11T04:24:33.041Z,17.74
2022-08-11T04:24:38.518Z,17.73
2022-08-11T04:25:20.828Z,17.74
2022-08-11T04:26:19.989Z,17.73
2022-08-11T04:27:19.796Z,17.71
2022-08-11T04:28:28.868Z,17.70
2022-08-11T04:29:20.757Z,17.71
2022-08-11T04:30:20.429Z,17.73
2022-08-11T04:31:44.177Z,17.74
2022-08-11T04:32:20.719Z,17.76
2022-08-11T04:33:19.761Z,17.76
2022-08-11T04:34:19.767Z,17.77
2022-08-11T04:35:19.749Z,17.80
2022-08-11T04:36:19.631Z,17.77
2022-08-11T04:37:19.721Z,17.77
2022-08-11T04:38:19.592Z,17.76
2022-08-11T04:39:19.710Z,17.76
2022-08-11T04:40:19.674Z,17.76
2022-08-11T04:41:19.603Z,17.76
2022-08-11T04:42:19.562Z,17.77
2022-08-11T04:43:19.546Z,17.76
2022-08-11T04:44:19.547Z,17.77
2022-08-11T04:45:19.541Z,17.76
2022-08-11T04:46:19.663Z,17.76
2022-08-11T04:47:20.217Z,17.77
2022-08-11T04:48:19.533Z,17.79
2022-08-11T04:49:25.651Z,17.76
2022-08-11T04:50:20.493Z,17.77
2022-08-11T04:51:19.487Z,17.77
2022-08-11T04:52:19.446Z,17.79
2022-08-11T04:53:19.444Z,17.79
2022-08-11T04:54:19.461Z,17.77
2022-08-11T04:55:19.411Z,17.79
2022-08-11T04:56:19.403Z,17.77
2022-08-11T04:57:19.427Z,17.77
2022-08-11T04:58:19.426Z,17.79
2022-08-11T04:59:19.418Z,17.79
2022-08-11T05:00:19.364Z,17.80
2022-08-11T05:01:19.427Z,17.80
2022-08-11T05:02:19.439Z,17.79
2022-08-11T05:03:19.396Z,17.79
2022-08-11T05:04:19.337Z,17.79
2022-08-11T05:05:19.298Z,17.80
2022-08-11T05:06:19.287Z,17.79
2022-08-11T05:07:19.279Z,17.80
2022-08-11T05:08:23.417Z,17.80
2022-08-11T05:09:19.288Z,17.80
2022-08-11T05:10:19.249Z,17.81
2022-08-11T05:11:19.241Z,17.84
2022-08-11T05:12:19.232Z,17.84
2022-08-11T05:13:19.211Z,17.84
2022-08-11T05:14:19.210Z,17.86
2022-08-11T05:15:19.197Z,17.87
2022-08-11T05:16:19.201Z,17.87
2022-08-11T05:17:19.171Z,17.89
2022-08-11T05:18:19.162Z,17.89
2022-08-11T05:19:19.148Z,17.91
2022-08-11T05:20:19.208Z,17.91
2022-08-11T05:21:19.150Z,17.89
2022-08-11T05:22:19.161Z,17.91
2022-08-11T05:23:19.155Z,17.92
2022-08-11T05:24:19.112Z,17.92
2022-08-11T05:26:45.330Z,17.92
2022-08-11T05:26:46.055Z,17.95
2022-08-11T05:27:20.083Z,17.96
2022-08-11T05:28:19.054Z,17.96
2022-08-11T05:29:20.154Z,17.98
2022-08-11T05:30:19.043Z,17.99
2022-08-11T05:31:19.024Z,17.98
2022-08-11T05:32:19.033Z,17.99
2022-08-11T05:33:18.994Z,17.99
2022-08-11T05:34:18.995Z,18.01
2022-08-11T05:36:00.756Z,18.01
2022-08-11T05:36:19.996Z,18.02
2022-08-11T05:37:26.722Z,18.01
2022-08-11T05:38:19.945Z,18.02
2022-08-11T05:39:19.023Z,18.05
2022-08-11T05:40:18.965Z,18.05
2022-08-11T05:41:18.913Z,18.07
2022-08-11T05:42:21.358Z,18.09
2022-08-11T05:43:19.918Z,18.10
2022-08-11T05:44:20.261Z,18.11
2022-08-11T05:45:18.868Z,18.11
2022-08-11T05:46:18.866Z,18.13
2022-08-11T05:47:18.867Z,18.13
2022-08-11T05:48:18.868Z,18.17
2022-08-11T05:49:18.826Z,18.17
2022-08-11T05:50:18.842Z,18.19
2022-08-11T05:51:25.834Z,18.21
2022-08-11T05:52:19.806Z,18.23
2022-08-11T05:53:19.798Z,18.25
2022-08-11T05:54:28.775Z,18.26
2022-08-11T05:55:19.779Z,18.28
2022-08-11T05:56:18.770Z,18.31
2022-08-11T05:57:48.553Z,18.34
2022-08-11T05:58:19.768Z,18.36
2022-08-11T05:59:18.856Z,18.36
2022-08-11T06:00:18.801Z,18.36
2022-08-11T06:01:18.859Z,18.38
2022-08-11T06:02:18.783Z,18.44
2022-08-11T06:03:18.673Z,18.44
2022-08-11T06:04:18.692Z,18.44
2022-08-11T06:05:19.447Z,18.47
2022-08-11T06:06:18.743Z,18.47
2022-08-11T06:07:20.724Z,18.47
2022-08-11T06:08:18.621Z,18.50
2022-08-11T06:09:18.625Z,18.53
2022-08-11T06:10:18.604Z,18.53
2022-08-11T06:11:18.614Z,18.54
2022-08-11T06:12:19.576Z,18.54
2022-08-11T06:13:18.566Z,18.57
2022-08-11T06:14:18.555Z,18.57
2022-08-11T06:15:18.562Z,18.59
2022-08-11T06:16:18.595Z,18.60
2022-08-11T06:17:18.538Z,18.64
2022-08-11T06:18:18.516Z,18.62
2022-08-11T06:19:18.495Z,18.65
2022-08-11T06:20:18.495Z,18.68
2022-08-11T06:21:18.525Z,18.68
2022-08-11T06:22:18.477Z,18.71
2022-08-11T06:23:18.519Z,18.72
2022-08-11T06:24:18.494Z,18.75
2022-08-11T06:25:18.486Z,18.75
2022-08-11T06:26:18.427Z,18.78
2022-08-11T06:27:18.455Z,18.79
2022-08-11T06:28:20.797Z,18.83
2022-08-11T06:29:18.417Z,18.84
2022-08-11T06:30:18.402Z,18.87
2022-08-11T06:31:18.385Z,18.93
2022-08-11T06:32:18.359Z,18.94
2022-08-11T06:33:18.346Z,18.97
2022-08-11T06:34:27.232Z,18.99
2022-08-11T06:35:19.369Z,19.02
2022-08-11T06:36:18.338Z,19.06
2022-08-11T06:37:18.330Z,19.06
2022-08-11T06:38:18.300Z,19.07
2022-08-11T06:39:18.350Z,19.09
2022-08-11T06:40:18.271Z,19.12
2022-08-11T06:41:18.292Z,19.16
2022-08-11T06:42:18.251Z,19.17
2022-08-11T06:43:18.268Z,19.21
2022-08-11T06:44:18.252Z,19.23
2022-08-11T06:45:18.210Z,19.24
2022-08-11T06:46:28.244Z,19.28
2022-08-11T06:47:19.501Z,19.30
2022-08-11T06:48:18.183Z,19.31
2022-08-11T06:49:18.203Z,19.34
2022-08-11T06:50:18.162Z,19.35
2022-08-11T06:51:18.143Z,19.35
2022-08-11T06:52:34.672Z,19.39
2022-08-11T06:53:19.123Z,19.42
2022-08-11T06:54:18.166Z,19.45
2022-08-11T06:55:56.835Z,19.46
2022-08-11T06:56:19.094Z,19.50
2022-08-11T06:57:33.408Z,19.53
2022-08-11T06:58:19.104Z,19.55
2022-08-11T06:59:18.105Z,19.58
2022-08-11T07:00:18.143Z,19.60
2022-08-11T07:01:18.220Z,19.61
2022-08-11T07:02:18.122Z,19.62
2022-08-11T07:03:18.052Z,19.64
2022-08-11T07:04:18.011Z,19.67
2022-08-11T07:05:18.007Z,19.68
2022-08-11T07:06:18.048Z,19.72
2022-08-11T07:07:18.010Z,19.75
2022-08-11T07:08:33.273Z,19.78
2022-08-11T07:09:18.990Z,19.80
2022-08-11T07:10:17.966Z,19.83
2022-08-11T07:11:17.932Z,19.86
2022-08-11T07:12:17.931Z,19.89
2022-08-11T07:13:43.162Z,19.92
2022-08-11T07:14:18.958Z,19.95
2022-08-11T07:15:17.889Z,19.98
2022-08-11T07:16:17.894Z,20.04
2022-08-11T07:17:18.867Z,20.07
2022-08-11T07:18:17.860Z,20.16
2022-08-11T07:19:17.841Z,20.20
2022-08-11T07:20:17.887Z,20.26
2022-08-11T07:22:00.922Z,20.31
2022-08-11T07:22:18.819Z,20.35
2022-08-11T07:23:17.814Z,20.40
2022-08-11T07:24:17.797Z,20.46
2022-08-11T07:25:17.802Z,20.53
2022-08-11T07:26:17.783Z,20.60
2022-08-11T07:27:17.823Z,20.66
2022-08-11T07:28:17.784Z,20.72
2022-08-11T07:29:17.733Z,20.75
2022-08-11T07:30:17.765Z,20.81
2022-08-11T07:31:17.724Z,20.88
2022-08-11T07:32:17.712Z,20.94
2022-08-11T07:34:05.634Z,20.98
2022-08-11T07:34:18.757Z,21.01
2022-08-11T07:35:17.732Z,21.03
2022-08-11T07:36:17.684Z,21.08
2022-08-11T07:37:17.741Z,21.09
2022-08-11T07:38:22.182Z,21.12
2022-08-11T07:39:18.681Z,21.15
2022-08-11T07:40:17.664Z,21.21
2022-08-11T07:41:17.615Z,21.24
2022-08-11T07:42:17.607Z,21.28
2022-08-11T07:43:17.587Z,21.38
2022-08-11T07:44:17.696Z,21.46
2022-08-11T07:45:17.566Z,21.55
2022-08-11T07:46:17.627Z,21.67
2022-08-11T07:47:17.571Z,21.70
2022-08-11T07:48:17.567Z,21.74
2022-08-11T07:49:17.558Z,21.77
2022-08-11T07:50:17.519Z,21.81
2022-08-11T07:51:17.557Z,21.83
2022-08-11T07:52:17.559Z,21.85
2022-08-11T07:53:17.479Z,21.90
2022-08-11T07:54:17.586Z,21.90
2022-08-11T07:55:17.510Z,21.93
2022-08-11T07:56:17.470Z,21.98
2022-08-11T07:57:58.445Z,22.01
2022-08-11T07:58:19.816Z,22.04
2022-08-11T07:59:17.452Z,22.08
2022-08-11T08:00:17.411Z,22.11
2022-08-11T08:01:22.531Z,22.17
2022-08-11T08:02:20.162Z,22.24
2022-08-11T08:03:17.369Z,22.27
2022-08-11T08:04:17.363Z,22.30
2022-08-11T08:05:17.344Z,22.31
2022-08-11T08:06:35.578Z,22.36
2022-08-11T08:07:18.327Z,22.38
2022-08-11T08:08:17.458Z,22.41
2022-08-11T08:09:17.344Z,22.46
2022-08-11T08:10:17.314Z,22.51
2022-08-11T08:11:17.333Z,22.51
2022-08-11T08:12:17.279Z,22.56
2022-08-11T08:13:17.262Z,22.60
2022-08-11T08:14:17.256Z,22.61
2022-08-11T08:15:17.355Z,22.66
2022-08-11T08:16:17.235Z,22.69
2022-08-11T08:17:17.225Z,22.70
2022-08-11T08:18:26.000Z,22.70
2022-08-11T08:19:18.197Z,22.76
2022-08-11T08:20:17.207Z,22.89
2022-08-11T08:21:17.187Z,22.97
2022-08-11T08:22:37.938Z,23.04
2022-08-11T08:23:18.241Z,23.12
2022-08-11T08:24:17.148Z,23.21
2022-08-11T08:25:17.156Z,23.26
2022-08-11T08:26:17.159Z,23.29
2022-08-11T08:27:17.119Z,23.32
2022-08-11T08:28:17.115Z,23.32
2022-08-11T08:29:17.111Z,23.32
2022-08-11T08:30:17.084Z,23.34
2022-08-11T08:31:17.100Z,23.32
2022-08-11T08:32:17.060Z,23.34
2022-08-11T08:33:17.101Z,23.39
2022-08-11T08:34:17.039Z,23.44
2022-08-11T08:35:17.038Z,23.49
2022-08-11T08:36:17.069Z,23.52
2022-08-11T08:37:47.270Z,23.54
2022-08-11T08:38:18.559Z,23.57
2022-08-11T08:39:17.048Z,23.60
2022-08-11T08:40:16.974Z,23.63
2022-08-11T08:41:17.115Z,23.64
2022-08-11T08:42:16.953Z,23.64
2022-08-11T08:43:16.994Z,23.68
2022-08-11T08:45:17.953Z,23.78
2022-08-11T08:46:16.905Z,23.82
2022-08-11T08:47:42.939Z,24.04
2022-08-11T08:48:17.926Z,24.16
2022-08-11T08:49:16.894Z,24.23
2022-08-11T08:50:17.173Z,24.24
2022-08-11T08:51:16.867Z,24.27
2022-08-11T08:52:25.407Z,24.31
2022-08-11T08:53:17.827Z,24.34
2022-08-11T08:54:16.842Z,24.34
2022-08-11T08:55:16.843Z,24.37
2022-08-11T08:56:16.823Z,24.41
2022-08-11T08:57:16.807Z,24.42
2022-08-11T08:58:16.785Z,24.48
2022-08-11T08:59:16.788Z,24.52
2022-08-11T09:00:20.755Z,24.60
2022-08-11T09:01:17.851Z,24.66
2022-08-11T09:02:16.770Z,24.74
2022-08-11T09:03:39.916Z,24.84
2022-08-11T09:04:20.941Z,24.98
2022-08-11T09:05:16.750Z,25.04
2022-08-11T09:06:16.730Z,25.09
2022-08-11T09:07:16.704Z,25.11
2022-08-11T09:08:16.672Z,25.14
2022-08-11T09:09:16.671Z,25.17
2022-08-11T09:10:16.672Z,25.17
2022-08-11T09:11:16.712Z,25.16
2022-08-11T09:12:16.651Z,25.17
2022-08-11T09:13:17.623Z,25.19
2022-08-11T09:14:16.612Z,25.20
2022-08-11T09:15:19.772Z,25.22
2022-08-11T09:16:16.913Z,25.22
2022-08-11T09:17:16.613Z,25.26
2022-08-11T09:18:16.578Z,25.35
2022-08-11T09:19:16.590Z,25.45
2022-08-11T09:20:16.645Z,25.46
2022-08-11T09:21:46.387Z,25.53
2022-08-11T09:22:17.595Z,25.60
2022-08-11T09:24:07.798Z,25.66
2022-08-11T09:24:25.864Z,25.74
2022-08-11T09:25:17.556Z,25.79
2022-08-11T09:26:16.539Z,25.82
2022-08-11T09:27:16.487Z,25.85
2022-08-11T09:28:16.457Z,25.89
2022-08-11T09:29:16.449Z,25.90
2022-08-11T09:30:16.472Z,25.94
2022-08-11T09:31:16.465Z,25.98
2022-08-11T09:32:16.468Z,26.04
2022-08-11T09:33:16.426Z,26.11
2022-08-11T09:34:16.405Z,26.17
2022-08-11T09:35:16.387Z,26.21
2022-08-11T09:36:16.419Z,26.28
2022-08-11T09:37:53.581Z,26.29
2022-08-11T09:38:17.664Z,26.31
2022-08-11T09:39:16.388Z,26.34
2022-08-11T09:40:16.371Z,26.39
2022-08-11T09:41:16.356Z,26.42
2022-08-11T09:42:18.881Z,26.47
2022-08-11T09:43:17.303Z,26.50
2022-08-11T09:44:16.315Z,26.54
2022-08-11T09:45:16.285Z,26.56
2022-08-11T09:46:16.263Z,26.59
2022-08-11T09:47:16.266Z,26.64
2022-08-11T09:48:16.272Z,26.64
2022-08-11T09:49:16.233Z,26.61
2022-08-11T09:50:16.276Z,26.64
2022-08-11T09:51:16.229Z,26.65
2022-08-11T09:52:16.203Z,26.65
2022-08-11T09:53:36.594Z,26.64
2022-08-11T09:54:17.213Z,26.65
2022-08-11T09:55:16.167Z,26.65
2022-08-11T09:56:16.226Z,26.65
2022-08-11T09:57:16.156Z,26.69
2022-08-11T09:58:42.013Z,26.68
2022-08-11T09:59:17.147Z,26.69
2022-08-11T10:00:16.190Z,26.68
2022-08-11T10:01:16.199Z,26.69
2022-08-11T10:02:16.088Z,26.71
2022-08-11T10:03:16.079Z,26.72
2022-08-11T10:04:16.069Z,26.75
2022-08-11T10:05:16.162Z,26.81
2022-08-11T10:06:16.047Z,26.84
2022-08-11T10:07:16.039Z,26.90
2022-08-11T10:08:16.062Z,26.93
2022-08-11T10:09:16.037Z,26.96
2022-08-11T10:10:16.047Z,27.01
2022-08-11T10:11:16.011Z,27.03
2022-08-11T10:12:16.051Z,27.08
2022-08-11T10:14:03.732Z,27.11
2022-08-11T10:14:32.760Z,27.13
2022-08-11T10:15:16.981Z,27.23
2022-08-11T10:16:16.909Z,27.28
2022-08-11T10:17:15.991Z,27.34
2022-08-11T10:18:15.948Z,27.39
2022-08-11T10:19:15.922Z,27.45
2022-08-11T10:20:15.894Z,27.49
2022-08-11T10:21:15.945Z,27.59
2022-08-11T10:22:15.935Z,27.71
2022-08-11T10:23:15.874Z,27.76
2022-08-11T10:24:15.904Z,27.77
2022-08-11T10:25:20.010Z,27.78
2022-08-11T10:26:15.882Z,27.77
2022-08-11T10:27:15.826Z,27.78
2022-08-11T10:28:30.592Z,27.81
2022-08-11T10:29:17.041Z,27.83
2022-08-11T10:30:15.801Z,27.83
2022-08-11T10:31:16.457Z,27.83
2022-08-11T10:32:15.789Z,27.87
2022-08-11T10:33:36.462Z,27.88
2022-08-11T10:34:16.748Z,27.91
2022-08-11T10:35:16.038Z,27.91
2022-08-11T10:36:16.694Z,27.91
2022-08-11T10:37:15.742Z,27.88
2022-08-11T10:38:15.942Z,27.88
2022-08-11T10:39:15.736Z,27.90
2022-08-11T10:40:15.755Z,27.90
2022-08-11T10:41:15.741Z,27.93
2022-08-11T10:42:26.120Z,27.99
2022-08-11T10:44:01.935Z,28.05
2022-08-11T10:44:16.751Z,28.09
2022-08-11T10:45:15.707Z,28.11
2022-08-11T10:46:15.662Z,28.13
2022-08-11T10:47:15.613Z,28.15
2022-08-11T10:48:15.782Z,28.17
2022-08-11T10:49:15.597Z,28.20
2022-08-11T10:50:15.603Z,28.23
2022-08-11T10:51:15.614Z,28.24
2022-08-11T10:52:16.581Z,28.21
2022-08-11T10:53:15.555Z,28.17
2022-08-11T10:54:15.555Z,28.21
2022-08-11T10:55:15.553Z,28.30
2022-08-11T10:56:15.533Z,28.35
2022-08-11T10:57:15.547Z,28.38
2022-08-11T10:58:15.495Z,28.39
2022-08-11T10:59:15.580Z,28.40
2022-08-11T11:00:15.612Z,28.40
2022-08-11T11:01:15.494Z,28.43
2022-08-11T11:02:15.450Z,28.45
2022-08-11T11:03:23.711Z,28.46
2022-08-11T11:04:16.428Z,28.48
2022-08-11T11:05:15.438Z,28.52
2022-08-11T11:06:28.196Z,28.55
2022-08-11T11:07:16.460Z,28.57
2022-08-11T11:08:15.380Z,28.58
2022-08-11T11:09:15.384Z,28.61
2022-08-11T11:10:15.491Z,28.61
2022-08-11T11:11:18.370Z,28.65
2022-08-11T11:12:15.341Z,28.67
2022-08-11T11:13:15.402Z,28.70
2022-08-11T11:14:15.519Z,28.73
2022-08-11T11:15:17.495Z,28.74
2022-08-11T11:16:15.323Z,28.77
2022-08-11T11:17:15.305Z,28.80
2022-08-11T11:18:15.302Z,28.83
2022-08-11T11:19:15.272Z,28.85
2022-08-11T11:20:36.713Z,28.87
2022-08-11T11:21:16.285Z,28.89
2022-08-11T11:22:15.255Z,28.87
2022-08-11T11:23:15.235Z,28.89
2022-08-11T11:24:15.286Z,28.94
2022-08-11T11:25:15.239Z,28.97
2022-08-11T11:26:15.237Z,29.08
2022-08-11T11:27:15.236Z,29.15
2022-08-11T11:28:15.232Z,29.20
2022-08-11T11:29:15.220Z,29.26
2022-08-11T11:30:15.172Z,29.32
2022-08-11T11:31:15.737Z,29.35
2022-08-11T11:32:15.156Z,29.36
2022-08-11T11:33:15.138Z,29.36
2022-08-11T11:34:15.149Z,29.39
2022-08-11T11:35:15.101Z,29.42
2022-08-11T11:36:15.087Z,29.47
2022-08-11T11:37:15.119Z,29.52
2022-08-11T11:38:15.143Z,29.55
2022-08-11T11:39:15.337Z,29.55
2022-08-11T11:40:15.093Z,29.60
2022-08-11T11:41:15.032Z,29.64
2022-08-11T11:42:15.041Z,29.69
2022-08-11T11:43:15.023Z,29.74
2022-08-11T11:44:15.002Z,29.82
2022-08-11T11:45:23.942Z,29.88
2022-08-11T11:46:15.984Z,29.92
2022-08-11T11:47:15.033Z,29.97
2022-08-11T11:48:14.975Z,30.01
2022-08-11T11:49:17.001Z,30.07
2022-08-11T11:50:14.989Z,30.15
2022-08-11T11:51:14.974Z,30.18
2022-08-11T11:52:15.018Z,30.23
2022-08-11T11:53:14.927Z,30.26
2022-08-11T11:54:14.917Z,30.32
2022-08-11T11:55:14.929Z,30.38
2022-08-11T11:56:14.908Z,30.44
2022-08-11T11:57:14.868Z,30.48
2022-08-11T11:58:17.882Z,30.54
2022-08-11T11:59:14.912Z,30.61
2022-08-11T12:00:14.864Z,30.59
2022-08-11T12:01:14.870Z,30.61
2022-08-11T12:02:14.866Z,30.72
2022-08-11T12:03:14.845Z,30.79
2022-08-11T12:04:14.795Z,30.91
2022-08-11T12:05:14.829Z,31.00
2022-08-11T12:06:14.769Z,31.05
2022-08-11T12:07:14.816Z,31.07
2022-08-11T12:08:14.751Z,31.10
2022-08-11T12:09:15.454Z,31.16
2022-08-11T12:10:14.754Z,31.23
2022-08-11T12:11:14.744Z,31.34
2022-08-11T12:12:14.714Z,31.41
2022-08-11T12:13:14.723Z,31.50
2022-08-11T12:14:14.704Z,31.57
2022-08-11T12:15:14.736Z,31.67
2022-08-11T12:16:34.851Z,31.82
2022-08-11T12:17:15.708Z,31.97
2022-08-11T12:18:14.703Z,32.10
2022-08-11T12:19:14.718Z,32.21
2022-08-11T12:20:31.562Z,32.35
2022-08-11T12:21:15.617Z,32.46
2022-08-11T12:22:14.659Z,32.61
2022-08-11T12:23:14.838Z,32.76
2022-08-11T12:24:14.589Z,32.99
2022-08-11T12:25:14.860Z,33.24
2022-08-11T12:26:26.959Z,33.55
2022-08-11T12:27:17.650Z,33.92
2022-08-11T12:28:14.542Z,34.34
2022-08-11T12:29:14.541Z,34.91
2022-08-11T12:30:14.562Z,35.59
2022-08-11T12:31:14.559Z,36.48
2022-08-11T12:32:14.503Z,37.12
2022-08-11T12:33:14.493Z,38.02
2022-08-11T12:34:15.522Z,38.79
2022-08-11T12:35:14.583Z,39.80
2022-08-11T12:36:14.485Z,40.72
2022-08-11T12:37:14.464Z,41.63
2022-08-11T12:38:14.445Z,42.43
2022-08-11T12:39:24.179Z,43.33
2022-08-11T12:40:43.408Z,44.03
2022-08-11T12:41:16.369Z,44.81
2022-08-11T12:42:14.399Z,45.50
2022-08-11T12:43:21.673Z,46.29
2022-08-11T12:44:15.405Z,46.90
2022-08-11T12:45:21.969Z,47.44
2022-08-11T12:46:15.360Z,47.76
2022-08-11T12:47:14.359Z,48.13
2022-08-11T12:49:00.565Z,48.48
2022-08-11T12:49:15.339Z,48.69
2022-08-11T12:50:21.753Z,48.74
2022-08-11T12:51:15.321Z,48.99
2022-08-11T12:52:15.745Z,49.21
2022-08-11T12:53:14.329Z,49.50